sensor_id;sensor_type;location;lat;lon;timestamp;P1;durP1;ratioP1;P2;durP2;ratioP2
27219;SDS011;45274;52.266;10.790;2024-01-30T00:01:12;12.90;;;7.00;;
27219;SDS011;45274;52.266;10.790;2024-01-30T00:03:38;14.10;;;6.90;;
27219;SDS011;45274;52.266;10.790;2024-01-30T00:06:03;13.65;;;6.80;;
27219;SDS011;45274;52.266;10.790;2024-01-30T00:08:29;10.52;;;6.70;;
27219;SDS011;45274;52.266;10.790;2024-01-30T00:10:54;12.48;;;6.82;;
27219;SDS011;45274;52.266;10.790;2024-01-30T00:13:20;11.60;;;6.78;;
27219;SDS011;45274;52.266;10.790;2024-01-30T00:15:45;14.73;;;6.47;;
27219;SDS011;45274;52.266;10.790;2024-01-30T00:18:11;11.70;;;6.53;;
27219;SDS011;45274;52.266;10.790;2024-01-30T00:20:36;11.00;;;6.60;;
27219;SDS011;45274;52.266;10.790;2024-01-30T00:23:01;10.23;;;6.72;;
27219;SDS011;45274;52.266;10.790;2024-01-30T00:25:27;9.85;;;5.88;;
27219;SDS011;45274;52.266;10.790;2024-01-30T00:27:53;9.75;;;6.50;;
27219;SDS011;45274;52.266;10.790;2024-01-30T00:30:18;11.15;;;6.82;;
27219;SDS011;45274;52.266;10.790;2024-01-30T00:32:45;9.77;;;5.88;;
27219;SDS011;45274;52.266;10.790;2024-01-30T00:35:10;11.30;;;6.10;;
27219;SDS011;45274;52.266;10.790;2024-01-30T00:37:36;12.57;;;6.43;;
27219;SDS011;45274;52.266;10.790;2024-01-30T00:40:01;11.18;;;6.18;;
27219;SDS011;45274;52.266;10.790;2024-01-30T00:42:27;7.88;;;5.45;;
27219;SDS011;45274;52.266;10.790;2024-01-30T00:44:52;7.20;;;5.50;;
27219;SDS011;45274;52.266;10.790;2024-01-30T00:47:17;8.70;;;5.63;;
27219;SDS011;45274;52.266;10.790;2024-01-30T00:49:43;9.82;;;6.22;;
27219;SDS011;45274;52.266;10.790;2024-01-30T00:52:08;9.48;;;5.88;;
27219;SDS011;45274;52.266;10.790;2024-01-30T00:54:34;11.35;;;5.95;;
27219;SDS011;45274;52.266;10.790;2024-01-30T00:56:59;8.82;;;5.97;;
27219;SDS011;45274;52.266;10.790;2024-01-30T00:59:24;11.32;;;6.90;;
27219;SDS011;45274;52.266;10.790;2024-01-30T01:01:50;10.93;;;6.13;;
27219;SDS011;45274;52.266;10.790;2024-01-30T01:04:16;11.13;;;5.93;;
27219;SDS011;45274;52.266;10.790;2024-01-30T01:06:42;10.50;;;6.07;;
27219;SDS011;45274;52.266;10.790;2024-01-30T01:09:09;9.57;;;6.00;;
27219;SDS011;45274;52.266;10.790;2024-01-30T01:11:36;9.10;;;5.43;;
27219;SDS011;45274;52.266;10.790;2024-01-30T01:14:02;12.20;;;5.93;;
27219;SDS011;45274;52.266;10.790;2024-01-30T01:16:28;10.27;;;5.80;;
27219;SDS011;45274;52.266;10.790;2024-01-30T01:18:54;8.77;;;5.43;;
27219;SDS011;45274;52.266;10.790;2024-01-30T01:21:19;12.38;;;6.18;;
27219;SDS011;45274;52.266;10.790;2024-01-30T01:23:44;10.50;;;5.95;;
27219;SDS011;45274;52.266;10.790;2024-01-30T01:26:10;9.57;;;6.03;;
27219;SDS011;45274;52.266;10.790;2024-01-30T01:28:35;13.15;;;6.30;;
27219;SDS011;45274;52.266;10.790;2024-01-30T01:31:01;9.70;;;5.88;;
27219;SDS011;45274;52.266;10.790;2024-01-30T01:33:30;10.23;;;6.28;;
27219;SDS011;45274;52.266;10.790;2024-01-30T01:35:59;9.52;;;5.93;;
27219;SDS011;45274;52.266;10.790;2024-01-30T01:38:27;8.27;;;5.45;;
27219;SDS011;45274;52.266;10.790;2024-01-30T01:40:53;9.82;;;5.93;;
27219;SDS011;45274;52.266;10.790;2024-01-30T01:43:18;8.45;;;5.03;;
27219;SDS011;45274;52.266;10.790;2024-01-30T01:45:44;9.48;;;5.40;;
27219;SDS011;45274;52.266;10.790;2024-01-30T01:48:10;9.05;;;5.40;;
27219;SDS011;45274;52.266;10.790;2024-01-30T01:50:37;8.35;;;6.05;;
27219;SDS011;45274;52.266;10.790;2024-01-30T01:53:03;9.38;;;5.43;;
27219;SDS011;45274;52.266;10.790;2024-01-30T01:55:28;8.15;;;5.50;;
27219;SDS011;45274;52.266;10.790;2024-01-30T01:57:55;7.75;;;5.40;;
27219;SDS011;45274;52.266;10.790;2024-01-30T02:00:21;9.32;;;5.43;;
27219;SDS011;45274;52.266;10.790;2024-01-30T02:02:48;9.57;;;6.10;;
27219;SDS011;45274;52.266;10.790;2024-01-30T02:05:15;8.35;;;5.22;;
27219;SDS011;45274;52.266;10.790;2024-01-30T02:07:41;8.85;;;5.75;;
27219;SDS011;45274;52.266;10.790;2024-01-30T02:10:07;7.07;;;5.28;;
27219;SDS011;45274;52.266;10.790;2024-01-30T02:12:33;10.77;;;5.22;;
27219;SDS011;45274;52.266;10.790;2024-01-30T02:14:59;12.27;;;5.45;;
27219;SDS011;45274;52.266;10.790;2024-01-30T02:17:24;9.68;;;5.65;;
27219;SDS011;45274;52.266;10.790;2024-01-30T02:19:49;10.65;;;5.50;;
27219;SDS011;45274;52.266;10.790;2024-01-30T02:22:15;8.45;;;5.13;;
27219;SDS011;45274;52.266;10.790;2024-01-30T02:24:40;11.85;;;5.90;;
27219;SDS011;45274;52.266;10.790;2024-01-30T02:27:06;9.80;;;5.90;;
27219;SDS011;45274;52.266;10.790;2024-01-30T02:29:31;8.35;;;5.90;;
27219;SDS011;45274;52.266;10.790;2024-01-30T02:31:56;8.13;;;5.60;;
27219;SDS011;45274;52.266;10.790;2024-01-30T02:34:23;9.35;;;5.97;;
27219;SDS011;45274;52.266;10.790;2024-01-30T02:36:48;9.30;;;5.53;;
27219;SDS011;45274;52.266;10.790;2024-01-30T02:39:14;9.45;;;5.20;;
27219;SDS011;45274;52.266;10.790;2024-01-30T02:41:39;8.52;;;5.72;;
27219;SDS011;45274;52.266;10.790;2024-01-30T02:44:05;8.60;;;5.45;;
27219;SDS011;45274;52.266;10.790;2024-01-30T02:46:30;10.75;;;5.72;;
27219;SDS011;45274;52.266;10.790;2024-01-30T02:48:56;9.95;;;5.30;;
27219;SDS011;45274;52.266;10.790;2024-01-30T02:51:21;8.52;;;5.57;;
27219;SDS011;45274;52.266;10.790;2024-01-30T02:53:46;7.95;;;5.28;;
27219;SDS011;45274;52.266;10.790;2024-01-30T02:56:12;8.10;;;5.60;;
27219;SDS011;45274;52.266;10.790;2024-01-30T02:58:39;10.50;;;6.00;;
27219;SDS011;45274;52.266;10.790;2024-01-30T03:01:05;9.93;;;5.95;;
27219;SDS011;45274;52.266;10.790;2024-01-30T03:03:30;10.27;;;5.53;;
27219;SDS011;45274;52.266;10.790;2024-01-30T03:05:56;9.82;;;5.97;;
27219;SDS011;45274;52.266;10.790;2024-01-30T03:08:21;8.23;;;5.97;;
27219;SDS011;45274;52.266;10.790;2024-01-30T03:10:47;9.23;;;5.55;;
27219;SDS011;45274;52.266;10.790;2024-01-30T03:13:12;11.70;;;5.80;;
27219;SDS011;45274;52.266;10.790;2024-01-30T03:15:38;13.82;;;6.10;;
27219;SDS011;45274;52.266;10.790;2024-01-30T03:18:03;13.27;;;6.30;;
27219;SDS011;45274;52.266;10.790;2024-01-30T03:20:29;11.77;;;5.95;;
27219;SDS011;45274;52.266;10.790;2024-01-30T03:22:55;9.55;;;5.88;;
27219;SDS011;45274;52.266;10.790;2024-01-30T03:25:20;10.23;;;5.75;;
27219;SDS011;45274;52.266;10.790;2024-01-30T03:27:46;10.90;;;6.25;;
27219;SDS011;45274;52.266;10.790;2024-01-30T03:30:11;10.98;;;5.53;;
27219;SDS011;45274;52.266;10.790;2024-01-30T03:32:37;11.13;;;5.90;;
27219;SDS011;45274;52.266;10.790;2024-01-30T03:35:02;10.10;;;6.00;;
27219;SDS011;45274;52.266;10.790;2024-01-30T03:37:28;10.65;;;6.07;;
27219;SDS011;45274;52.266;10.790;2024-01-30T03:39:53;9.13;;;6.22;;
27219;SDS011;45274;52.266;10.790;2024-01-30T03:42:19;8.07;;;6.00;;
27219;SDS011;45274;52.266;10.790;2024-01-30T03:44:44;10.80;;;6.32;;
27219;SDS011;45274;52.266;10.790;2024-01-30T03:47:09;9.13;;;5.95;;
27219;SDS011;45274;52.266;10.790;2024-01-30T03:49:35;8.13;;;5.85;;
27219;SDS011;45274;52.266;10.790;2024-01-30T03:52:00;11.20;;;6.15;;
27219;SDS011;45274;52.266;10.790;2024-01-30T03:54:25;10.05;;;6.40;;
27219;SDS011;45274;52.266;10.790;2024-01-30T03:56:51;7.80;;;5.22;;
27219;SDS011;45274;52.266;10.790;2024-01-30T03:59:16;10.32;;;5.65;;
27219;SDS011;45274;52.266;10.790;2024-01-30T04:01:47;11.00;;;6.07;;
27219;SDS011;45274;52.266;10.790;2024-01-30T04:04:12;9.10;;;5.97;;
27219;SDS011;45274;52.266;10.790;2024-01-30T04:06:38;8.55;;;6.20;;
27219;SDS011;45274;52.266;10.790;2024-01-30T04:09:03;10.52;;;6.75;;
27219;SDS011;45274;52.266;10.790;2024-01-30T04:11:28;13.07;;;6.40;;
27219;SDS011;45274;52.266;10.790;2024-01-30T04:13:54;9.90;;;6.15;;
27219;SDS011;45274;52.266;10.790;2024-01-30T04:16:20;14.95;;;7.50;;
27219;SDS011;45274;52.266;10.790;2024-01-30T04:18:48;9.80;;;6.47;;
27219;SDS011;45274;52.266;10.790;2024-01-30T04:21:14;11.32;;;6.68;;
27219;SDS011;45274;52.266;10.790;2024-01-30T04:23:40;10.25;;;6.55;;
27219;SDS011;45274;52.266;10.790;2024-01-30T04:26:06;8.70;;;6.28;;
27219;SDS011;45274;52.266;10.790;2024-01-30T04:28:31;11.20;;;6.65;;
27219;SDS011;45274;52.266;10.790;2024-01-30T04:30:56;10.38;;;6.53;;
27219;SDS011;45274;52.266;10.790;2024-01-30T04:33:22;10.07;;;5.78;;
27219;SDS011;45274;52.266;10.790;2024-01-30T04:35:47;9.35;;;6.25;;
27219;SDS011;45274;52.266;10.790;2024-01-30T04:38:12;14.10;;;6.72;;
27219;SDS011;45274;52.266;10.790;2024-01-30T04:40:39;12.15;;;6.53;;
27219;SDS011;45274;52.266;10.790;2024-01-30T04:43:05;11.13;;;6.32;;
27219;SDS011;45274;52.266;10.790;2024-01-30T04:45:30;10.05;;;6.35;;
27219;SDS011;45274;52.266;10.790;2024-01-30T04:47:56;9.27;;;6.32;;
27219;SDS011;45274;52.266;10.790;2024-01-30T04:50:21;11.65;;;6.60;;
27219;SDS011;45274;52.266;10.790;2024-01-30T04:52:46;12.25;;;7.05;;
27219;SDS011;45274;52.266;10.790;2024-01-30T04:55:12;9.25;;;6.18;;
27219;SDS011;45274;52.266;10.790;2024-01-30T04:57:37;8.93;;;6.07;;
27219;SDS011;45274;52.266;10.790;2024-01-30T05:00:03;8.80;;;6.43;;
27219;SDS011;45274;52.266;10.790;2024-01-30T05:02:28;12.10;;;6.10;;
27219;SDS011;45274;52.266;10.790;2024-01-30T05:04:54;10.02;;;6.10;;
27219;SDS011;45274;52.266;10.790;2024-01-30T05:07:19;11.98;;;6.88;;
27219;SDS011;45274;52.266;10.790;2024-01-30T05:09:45;12.98;;;6.45;;
27219;SDS011;45274;52.266;10.790;2024-01-30T05:12:10;7.68;;;5.40;;
27219;SDS011;45274;52.266;10.790;2024-01-30T05:14:36;8.15;;;5.65;;
27219;SDS011;45274;52.266;10.790;2024-01-30T05:17:04;8.93;;;5.88;;
27219;SDS011;45274;52.266;10.790;2024-01-30T05:19:29;8.63;;;6.07;;
27219;SDS011;45274;52.266;10.790;2024-01-30T05:21:55;10.32;;;6.47;;
27219;SDS011;45274;52.266;10.790;2024-01-30T05:24:20;9.93;;;6.22;;
27219;SDS011;45274;52.266;10.790;2024-01-30T05:26:45;11.00;;;6.60;;
27219;SDS011;45274;52.266;10.790;2024-01-30T05:29:12;10.32;;;5.65;;
27219;SDS011;45274;52.266;10.790;2024-01-30T05:31:37;10.65;;;6.03;;
27219;SDS011;45274;52.266;10.790;2024-01-30T05:34:03;11.13;;;6.72;;
27219;SDS011;45274;52.266;10.790;2024-01-30T05:36:28;8.32;;;5.90;;
27219;SDS011;45274;52.266;10.790;2024-01-30T05:38:53;11.32;;;6.50;;
27219;SDS011;45274;52.266;10.790;2024-01-30T05:41:19;9.48;;;6.05;;
27219;SDS011;45274;52.266;10.790;2024-01-30T05:43:46;9.40;;;6.05;;
27219;SDS011;45274;52.266;10.790;2024-01-30T05:46:11;9.68;;;6.10;;
27219;SDS011;45274;52.266;10.790;2024-01-30T05:48:37;12.75;;;5.55;;
27219;SDS011;45274;52.266;10.790;2024-01-30T05:51:02;10.95;;;6.20;;
27219;SDS011;45274;52.266;10.790;2024-01-30T05:53:29;9.15;;;5.68;;
27219;SDS011;45274;52.266;10.790;2024-01-30T05:55:54;12.30;;;6.63;;
27219;SDS011;45274;52.266;10.790;2024-01-30T05:58:19;8.30;;;6.10;;
27219;SDS011;45274;52.266;10.790;2024-01-30T06:00:45;9.35;;;6.18;;
27219;SDS011;45274;52.266;10.790;2024-01-30T06:03:10;10.57;;;6.22;;
27219;SDS011;45274;52.266;10.790;2024-01-30T06:05:36;9.50;;;5.57;;
27219;SDS011;45274;52.266;10.790;2024-01-30T06:08:02;9.35;;;5.72;;
27219;SDS011;45274;52.266;10.790;2024-01-30T06:10:27;11.38;;;6.47;;
27219;SDS011;45274;52.266;10.790;2024-01-30T06:12:53;10.85;;;6.57;;
27219;SDS011;45274;52.266;10.790;2024-01-30T06:15:18;9.73;;;5.82;;
27219;SDS011;45274;52.266;10.790;2024-01-30T06:17:43;9.40;;;5.80;;
27219;SDS011;45274;52.266;10.790;2024-01-30T06:20:09;9.70;;;6.03;;
27219;SDS011;45274;52.266;10.790;2024-01-30T06:22:35;11.90;;;6.57;;
27219;SDS011;45274;52.266;10.790;2024-01-30T06:25:00;10.30;;;6.30;;
27219;SDS011;45274;52.266;10.790;2024-01-30T06:27:26;10.35;;;6.20;;
27219;SDS011;45274;52.266;10.790;2024-01-30T06:29:51;9.55;;;5.75;;
27219;SDS011;45274;52.266;10.790;2024-01-30T06:32:16;13.80;;;7.13;;
27219;SDS011;45274;52.266;10.790;2024-01-30T06:34:42;9.05;;;6.40;;
27219;SDS011;45274;52.266;10.790;2024-01-30T06:37:09;12.10;;;6.88;;
27219;SDS011;45274;52.266;10.790;2024-01-30T06:39:34;10.90;;;6.68;;
27219;SDS011;45274;52.266;10.790;2024-01-30T06:42:00;14.40;;;7.72;;
27219;SDS011;45274;52.266;10.790;2024-01-30T06:44:25;10.82;;;7.53;;
27219;SDS011;45274;52.266;10.790;2024-01-30T06:46:51;12.35;;;6.40;;
27219;SDS011;45274;52.266;10.790;2024-01-30T06:49:16;12.50;;;7.53;;
27219;SDS011;45274;52.266;10.790;2024-01-30T06:51:41;10.00;;;7.13;;
27219;SDS011;45274;52.266;10.790;2024-01-30T06:54:07;11.32;;;7.43;;
27219;SDS011;45274;52.266;10.790;2024-01-30T06:56:32;12.90;;;7.13;;
27219;SDS011;45274;52.266;10.790;2024-01-30T06:58:57;12.07;;;7.13;;
27219;SDS011;45274;52.266;10.790;2024-01-30T07:01:28;13.68;;;7.10;;
27219;SDS011;45274;52.266;10.790;2024-01-30T07:03:54;14.55;;;7.82;;
27219;SDS011;45274;52.266;10.790;2024-01-30T07:06:19;11.00;;;6.78;;
27219;SDS011;45274;52.266;10.790;2024-01-30T07:08:45;13.27;;;6.93;;
27219;SDS011;45274;52.266;10.790;2024-01-30T07:11:17;11.52;;;7.28;;
27219;SDS011;45274;52.266;10.790;2024-01-30T07:13:43;10.30;;;6.97;;
27219;SDS011;45274;52.266;10.790;2024-01-30T07:16:09;11.05;;;6.68;;
27219;SDS011;45274;52.266;10.790;2024-01-30T07:18:34;12.65;;;7.85;;
27219;SDS011;45274;52.266;10.790;2024-01-30T07:20:59;12.68;;;7.50;;
27219;SDS011;45274;52.266;10.790;2024-01-30T07:23:25;13.88;;;6.88;;
27219;SDS011;45274;52.266;10.790;2024-01-30T07:25:50;12.85;;;7.57;;
27219;SDS011;45274;52.266;10.790;2024-01-30T07:28:15;12.38;;;7.38;;
27219;SDS011;45274;52.266;10.790;2024-01-30T07:30:42;12.75;;;7.55;;
27219;SDS011;45274;52.266;10.790;2024-01-30T07:33:08;12.32;;;7.78;;
27219;SDS011;45274;52.266;10.790;2024-01-30T07:35:34;18.13;;;7.53;;
27219;SDS011;45274;52.266;10.790;2024-01-30T07:37:59;11.50;;;7.03;;
27219;SDS011;45274;52.266;10.790;2024-01-30T07:40:25;11.30;;;7.07;;
27219;SDS011;45274;52.266;10.790;2024-01-30T07:42:50;12.05;;;7.32;;
27219;SDS011;45274;52.266;10.790;2024-01-30T07:45:16;14.05;;;7.85;;
27219;SDS011;45274;52.266;10.790;2024-01-30T07:47:41;12.98;;;7.03;;
27219;SDS011;45274;52.266;10.790;2024-01-30T07:50:07;14.60;;;7.65;;
27219;SDS011;45274;52.266;10.790;2024-01-30T07:52:33;12.57;;;7.05;;
27219;SDS011;45274;52.266;10.790;2024-01-30T07:54:58;12.70;;;6.93;;
27219;SDS011;45274;52.266;10.790;2024-01-30T07:57:24;13.85;;;8.10;;
27219;SDS011;45274;52.266;10.790;2024-01-30T07:59:49;11.38;;;6.72;;
27219;SDS011;45274;52.266;10.790;2024-01-30T08:02:15;14.50;;;7.97;;
27219;SDS011;45274;52.266;10.790;2024-01-30T08:04:40;11.38;;;7.60;;
27219;SDS011;45274;52.266;10.790;2024-01-30T08:07:06;11.30;;;7.35;;
27219;SDS011;45274;52.266;10.790;2024-01-30T08:09:32;12.50;;;7.35;;
27219;SDS011;45274;52.266;10.790;2024-01-30T08:11:57;12.55;;;7.63;;
27219;SDS011;45274;52.266;10.790;2024-01-30T08:14:22;13.32;;;7.13;;
27219;SDS011;45274;52.266;10.790;2024-01-30T08:16:48;11.88;;;7.78;;
27219;SDS011;45274;52.266;10.790;2024-01-30T08:19:14;14.30;;;7.88;;
27219;SDS011;45274;52.266;10.790;2024-01-30T08:21:40;11.73;;;7.70;;
27219;SDS011;45274;52.266;10.790;2024-01-30T08:24:06;11.80;;;7.40;;
27219;SDS011;45274;52.266;10.790;2024-01-30T08:26:32;12.30;;;7.40;;
27219;SDS011;45274;52.266;10.790;2024-01-30T08:28:57;13.15;;;7.75;;
27219;SDS011;45274;52.266;10.790;2024-01-30T08:31:23;10.35;;;6.88;;
27219;SDS011;45274;52.266;10.790;2024-01-30T08:33:48;12.30;;;7.20;;
27219;SDS011;45274;52.266;10.790;2024-01-30T08:36:14;13.05;;;7.80;;
27219;SDS011;45274;52.266;10.790;2024-01-30T08:38:40;14.63;;;7.65;;
27219;SDS011;45274;52.266;10.790;2024-01-30T08:41:06;14.02;;;7.55;;
27219;SDS011;45274;52.266;10.790;2024-01-30T08:43:32;12.65;;;7.40;;
27219;SDS011;45274;52.266;10.790;2024-01-30T08:46:01;9.95;;;7.10;;
27219;SDS011;45274;52.266;10.790;2024-01-30T08:48:26;11.07;;;7.25;;
27219;SDS011;45274;52.266;10.790;2024-01-30T08:50:52;12.05;;;7.30;;
27219;SDS011;45274;52.266;10.790;2024-01-30T08:53:17;15.95;;;8.07;;
27219;SDS011;45274;52.266;10.790;2024-01-30T08:55:43;10.50;;;7.15;;
27219;SDS011;45274;52.266;10.790;2024-01-30T08:58:09;13.82;;;7.10;;
27219;SDS011;45274;52.266;10.790;2024-01-30T09:00:34;11.13;;;6.95;;
27219;SDS011;45274;52.266;10.790;2024-01-30T09:02:59;10.77;;;7.50;;
27219;SDS011;45274;52.266;10.790;2024-01-30T09:05:25;10.00;;;6.78;;
27219;SDS011;45274;52.266;10.790;2024-01-30T09:07:50;10.85;;;7.40;;
27219;SDS011;45274;52.266;10.790;2024-01-30T09:10:16;12.50;;;7.25;;
27219;SDS011;45274;52.266;10.790;2024-01-30T09:12:41;12.30;;;7.28;;
27219;SDS011;45274;52.266;10.790;2024-01-30T09:15:06;11.15;;;7.30;;
27219;SDS011;45274;52.266;10.790;2024-01-30T09:17:32;13.02;;;7.53;;
27219;SDS011;45274;52.266;10.790;2024-01-30T09:19:58;11.98;;;7.47;;
27219;SDS011;45274;52.266;10.790;2024-01-30T09:22:23;13.82;;;7.85;;
27219;SDS011;45274;52.266;10.790;2024-01-30T09:24:49;13.05;;;7.50;;
27219;SDS011;45274;52.266;10.790;2024-01-30T09:27:14;10.90;;;7.10;;
27219;SDS011;45274;52.266;10.790;2024-01-30T09:29:40;13.82;;;8.32;;
27219;SDS011;45274;52.266;10.790;2024-01-30T09:32:05;13.18;;;8.82;;
27219;SDS011;45274;52.266;10.790;2024-01-30T09:34:31;14.43;;;8.90;;
27219;SDS011;45274;52.266;10.790;2024-01-30T09:36:58;14.35;;;9.43;;
27219;SDS011;45274;52.266;10.790;2024-01-30T09:39:24;18.40;;;9.43;;
27219;SDS011;45274;52.266;10.790;2024-01-30T09:41:55;13.88;;;8.57;;
27219;SDS011;45274;52.266;10.790;2024-01-30T09:44:28;17.92;;;10.20;;
27219;SDS011;45274;52.266;10.790;2024-01-30T09:46:55;15.68;;;9.35;;
27219;SDS011;45274;52.266;10.790;2024-01-30T09:49:20;16.27;;;8.85;;
27219;SDS011;45274;52.266;10.790;2024-01-30T09:51:49;14.38;;;9.77;;
27219;SDS011;45274;52.266;10.790;2024-01-30T09:54:15;13.90;;;8.70;;
27219;SDS011;45274;52.266;10.790;2024-01-30T09:56:41;14.57;;;8.68;;
27219;SDS011;45274;52.266;10.790;2024-01-30T09:59:06;13.50;;;8.35;;
27219;SDS011;45274;52.266;10.790;2024-01-30T10:01:32;13.82;;;8.15;;
27219;SDS011;45274;52.266;10.790;2024-01-30T10:04:00;14.30;;;7.93;;
27219;SDS011;45274;52.266;10.790;2024-01-30T10:06:26;14.45;;;8.20;;
27219;SDS011;45274;52.266;10.790;2024-01-30T10:08:52;10.85;;;7.18;;
27219;SDS011;45274;52.266;10.790;2024-01-30T10:11:18;11.82;;;8.23;;
27219;SDS011;45274;52.266;10.790;2024-01-30T10:13:43;10.93;;;6.90;;
27219;SDS011;45274;52.266;10.790;2024-01-30T10:16:08;14.18;;;7.80;;
27219;SDS011;45274;52.266;10.790;2024-01-30T10:18:34;13.30;;;7.78;;
27219;SDS011;45274;52.266;10.790;2024-01-30T10:20:59;12.50;;;7.45;;
27219;SDS011;45274;52.266;10.790;2024-01-30T10:23:25;10.90;;;7.32;;
27219;SDS011;45274;52.266;10.790;2024-01-30T10:25:51;11.23;;;7.32;;
27219;SDS011;45274;52.266;10.790;2024-01-30T10:28:17;9.32;;;6.60;;
27219;SDS011;45274;52.266;10.790;2024-01-30T10:30:42;11.38;;;6.93;;
27219;SDS011;45274;52.266;10.790;2024-01-30T10:33:07;12.05;;;7.80;;
27219;SDS011;45274;52.266;10.790;2024-01-30T10:35:33;9.88;;;7.07;;
27219;SDS011;45274;52.266;10.790;2024-01-30T10:37:58;10.23;;;7.53;;
27219;SDS011;45274;52.266;10.790;2024-01-30T10:40:25;11.73;;;7.63;;
27219;SDS011;45274;52.266;10.790;2024-01-30T10:42:53;9.60;;;7.28;;
27219;SDS011;45274;52.266;10.790;2024-01-30T10:45:20;11.20;;;7.88;;
27219;SDS011;45274;52.266;10.790;2024-01-30T10:47:52;16.80;;;8.18;;
27219;SDS011;45274;52.266;10.790;2024-01-30T10:50:18;11.60;;;7.60;;
27219;SDS011;45274;52.266;10.790;2024-01-30T10:52:44;11.52;;;7.40;;
27219;SDS011;45274;52.266;10.790;2024-01-30T10:55:11;13.88;;;7.35;;
27219;SDS011;45274;52.266;10.790;2024-01-30T10:57:38;14.23;;;7.97;;
27219;SDS011;45274;52.266;10.790;2024-01-30T11:00:10;12.38;;;7.00;;
27219;SDS011;45274;52.266;10.790;2024-01-30T11:02:38;13.15;;;8.20;;
27219;SDS011;45274;52.266;10.790;2024-01-30T11:05:05;12.23;;;7.38;;
27219;SDS011;45274;52.266;10.790;2024-01-30T11:07:31;16.95;;;7.55;;
27219;SDS011;45274;52.266;10.790;2024-01-30T11:10:00;11.25;;;7.70;;
27219;SDS011;45274;52.266;10.790;2024-01-30T11:12:29;8.43;;;5.43;;
27219;SDS011;45274;52.266;10.790;2024-01-30T11:15:05;12.00;;;7.13;;
27219;SDS011;45274;52.266;10.790;2024-01-30T11:22:41;5.97;;;4.00;;
27219;SDS011;45274;52.266;10.790;2024-01-30T11:25:11;6.70;;;4.13;;
27219;SDS011;45274;52.266;10.790;2024-01-30T11:27:37;8.23;;;3.88;;
27219;SDS011;45274;52.266;10.790;2024-01-30T11:30:03;7.30;;;4.15;;
27219;SDS011;45274;52.266;10.790;2024-01-30T11:32:30;8.18;;;3.70;;
27219;SDS011;45274;52.266;10.790;2024-01-30T11:34:55;7.22;;;3.75;;
27219;SDS011;45274;52.266;10.790;2024-01-30T11:37:21;7.22;;;3.78;;
27219;SDS011;45274;52.266;10.790;2024-01-30T11:39:50;6.22;;;3.50;;
27219;SDS011;45274;52.266;10.790;2024-01-30T11:42:16;6.70;;;3.80;;
27219;SDS011;45274;52.266;10.790;2024-01-30T11:44:46;5.40;;;3.83;;
27219;SDS011;45274;52.266;10.790;2024-01-30T11:47:12;7.05;;;3.72;;
27219;SDS011;45274;52.266;10.790;2024-01-30T11:49:37;4.95;;;3.65;;
27219;SDS011;45274;52.266;10.790;2024-01-30T11:52:03;4.57;;;3.10;;
27219;SDS011;45274;52.266;10.790;2024-01-30T11:54:29;6.55;;;3.22;;
27219;SDS011;45274;52.266;10.790;2024-01-30T11:56:54;6.80;;;3.30;;
27219;SDS011;45274;52.266;10.790;2024-01-30T11:59:20;7.72;;;3.80;;
27219;SDS011;45274;52.266;10.790;2024-01-30T12:01:46;8.05;;;3.47;;
27219;SDS011;45274;52.266;10.790;2024-01-30T12:04:11;7.55;;;3.60;;
27219;SDS011;45274;52.266;10.790;2024-01-30T12:06:37;8.70;;;5.63;;
27219;SDS011;45274;52.266;10.790;2024-01-30T12:09:03;10.05;;;5.65;;
27219;SDS011;45274;52.266;10.790;2024-01-30T12:11:46;9.40;;;5.35;;
27219;SDS011;45274;52.266;10.790;2024-01-30T12:14:12;10.27;;;5.72;;
27219;SDS011;45274;52.266;10.790;2024-01-30T12:16:39;10.45;;;5.68;;
27219;SDS011;45274;52.266;10.790;2024-01-30T12:19:04;7.15;;;5.00;;
27219;SDS011;45274;52.266;10.790;2024-01-30T12:21:29;8.90;;;5.50;;
27219;SDS011;45274;52.266;10.790;2024-01-30T12:23:58;8.57;;;5.05;;
27219;SDS011;45274;52.266;10.790;2024-01-30T12:26:25;7.85;;;4.28;;
27219;SDS011;45274;52.266;10.790;2024-01-30T12:28:50;8.50;;;4.30;;
27219;SDS011;45274;52.266;10.790;2024-01-30T12:31:25;6.13;;;3.50;;
27219;SDS011;45274;52.266;10.790;2024-01-30T12:36:18;6.80;;;3.70;;
27219;SDS011;45274;52.266;10.790;2024-01-30T12:38:43;7.60;;;3.97;;
27219;SDS011;45274;52.266;10.790;2024-01-30T12:41:09;7.60;;;3.92;;
27219;SDS011;45274;52.266;10.790;2024-01-30T12:43:35;6.45;;;3.72;;
27219;SDS011;45274;52.266;10.790;2024-01-30T12:46:01;6.78;;;3.33;;
27219;SDS011;45274;52.266;10.790;2024-01-30T12:48:28;8.68;;;4.18;;
27219;SDS011;45274;52.266;10.790;2024-01-30T12:50:54;8.85;;;4.45;;
27219;SDS011;45274;52.266;10.790;2024-01-30T12:53:21;7.95;;;4.32;;
27219;SDS011;45274;52.266;10.790;2024-01-30T12:55:46;6.85;;;4.05;;
27219;SDS011;45274;52.266;10.790;2024-01-30T12:58:11;7.47;;;4.00;;
27219;SDS011;45274;52.266;10.790;2024-01-30T13:00:37;6.88;;;4.45;;
27219;SDS011;45274;52.266;10.790;2024-01-30T13:03:02;7.78;;;4.32;;
27219;SDS011;45274;52.266;10.790;2024-01-30T13:05:28;8.23;;;4.10;;
27219;SDS011;45274;52.266;10.790;2024-01-30T13:07:53;7.70;;;4.50;;
27219;SDS011;45274;52.266;10.790;2024-01-30T13:10:19;8.70;;;4.30;;
27219;SDS011;45274;52.266;10.790;2024-01-30T13:12:44;13.48;;;7.75;;
27219;SDS011;45274;52.266;10.790;2024-01-30T13:15:09;8.90;;;6.10;;
27219;SDS011;45274;52.266;10.790;2024-01-30T13:17:36;12.93;;;7.75;;
27219;SDS011;45274;52.266;10.790;2024-01-30T13:20:02;8.07;;;4.97;;
27219;SDS011;45274;52.266;10.790;2024-01-30T13:22:29;13.15;;;6.38;;
27219;SDS011;45274;52.266;10.790;2024-01-30T13:24:54;22.73;;;10.25;;
27219;SDS011;45274;52.266;10.790;2024-01-30T13:27:20;25.63;;;11.55;;
27219;SDS011;45274;52.266;10.790;2024-01-30T13:29:46;30.67;;;13.68;;
27219;SDS011;45274;52.266;10.790;2024-01-30T13:32:11;12.88;;;8.55;;
27219;SDS011;45274;52.266;10.790;2024-01-30T13:34:36;10.25;;;6.57;;
27219;SDS011;45274;52.266;10.790;2024-01-30T13:37:02;8.23;;;4.25;;
27219;SDS011;45274;52.266;10.790;2024-01-30T13:39:27;5.95;;;3.97;;
27219;SDS011;45274;52.266;10.790;2024-01-30T13:41:54;8.23;;;4.25;;
27219;SDS011;45274;52.266;10.790;2024-01-30T13:44:19;6.00;;;4.30;;
27219;SDS011;45274;52.266;10.790;2024-01-30T13:46:45;8.57;;;4.13;;
27219;SDS011;45274;52.266;10.790;2024-01-30T13:49:11;7.13;;;4.25;;
27219;SDS011;45274;52.266;10.790;2024-01-30T13:51:36;6.93;;;4.18;;
27219;SDS011;45274;52.266;10.790;2024-01-30T13:54:02;5.70;;;4.32;;
27219;SDS011;45274;52.266;10.790;2024-01-30T13:56:27;8.50;;;4.38;;
27219;SDS011;45274;52.266;10.790;2024-01-30T13:58:54;6.88;;;4.85;;
27219;SDS011;45274;52.266;10.790;2024-01-30T14:01:21;9.15;;;4.93;;
27219;SDS011;45274;52.266;10.790;2024-01-30T14:03:47;6.93;;;4.88;;
27219;SDS011;45274;52.266;10.790;2024-01-30T14:06:12;9.60;;;4.97;;
27219;SDS011;45274;52.266;10.790;2024-01-30T14:08:38;8.15;;;4.78;;
27219;SDS011;45274;52.266;10.790;2024-01-30T14:11:04;9.13;;;4.50;;
27219;SDS011;45274;52.266;10.790;2024-01-30T14:13:29;9.40;;;4.50;;
27219;SDS011;45274;52.266;10.790;2024-01-30T14:15:56;8.48;;;4.32;;
27219;SDS011;45274;52.266;10.790;2024-01-30T14:18:21;8.60;;;4.50;;
27219;SDS011;45274;52.266;10.790;2024-01-30T14:20:47;6.28;;;4.20;;
27219;SDS011;45274;52.266;10.790;2024-01-30T14:23:12;6.93;;;4.25;;
27219;SDS011;45274;52.266;10.790;2024-01-30T14:25:37;8.52;;;4.00;;